sensor_id;sensor_type;location;lat;lon;timestamp;P1;durP1;ratioP1;P2;durP2;ratioP2
74152;SDS011;62505;46.070;14.492;2023-09-18T00:00:31;5.72;;;4.07;;
74152;SDS011;62505;46.070;14.492;2023-09-18T00:03:00;4.57;;;3.90;;
74152;SDS011;62505;46.070;14.492;2023-09-18T00:05:28;6.65;;;4.00;;
74152;SDS011;62505;46.070;14.492;2023-09-18T00:07:55;5.43;;;4.50;;
74152;SDS011;62505;46.070;14.492;2023-09-18T00:10:22;5.75;;;4.43;;
74152;SDS011;62505;46.070;14.492;2023-09-18T00:12:50;12.57;;;4.97;;
74152;SDS011;62505;46.070;14.492;2023-09-18T00:15:16;11.68;;;4.47;;
74152;SDS011;62505;46.070;14.492;2023-09-18T00:17:45;7.78;;;4.72;;
74152;SDS011;62505;46.070;14.492;2023-09-18T00:20:12;11.75;;;5.07;;
74152;SDS011;62505;46.070;14.492;2023-09-18T00:22:39;7.32;;;4.63;;
74152;SDS011;62505;46.070;14.492;2023-09-18T00:25:06;14.73;;;4.72;;
74152;SDS011;62505;46.070;14.492;2023-09-18T00:27:33;8.70;;;4.57;;
74152;SDS011;62505;46.070;14.492;2023-09-18T00:30:01;10.73;;;4.85;;
74152;SDS011;62505;46.070;14.492;2023-09-18T00:32:28;10.23;;;4.63;;
74152;SDS011;62505;46.070;14.492;2023-09-18T00:34:57;9.27;;;4.82;;
74152;SDS011;62505;46.070;14.492;2023-09-18T00:37:24;10.00;;;4.72;;
74152;SDS011;62505;46.070;14.492;2023-09-18T00:39:51;9.98;;;4.68;;
74152;SDS011;62505;46.070;14.492;2023-09-18T00:42:18;5.03;;;4.45;;
74152;SDS011;62505;46.070;14.492;2023-09-18T00:44:47;8.90;;;4.50;;
74152;SDS011;62505;46.070;14.492;2023-09-18T00:47:14;7.57;;;4.63;;
74152;SDS011;62505;46.070;14.492;2023-09-18T00:49:43;6.85;;;4.75;;
74152;SDS011;62505;46.070;14.492;2023-09-18T00:52:14;8.73;;;4.93;;
74152;SDS011;62505;46.070;14.492;2023-09-18T00:54:42;10.38;;;5.03;;
74152;SDS011;62505;46.070;14.492;2023-09-18T00:57:10;6.22;;;4.78;;
74152;SDS011;62505;46.070;14.492;2023-09-18T00:59:38;7.90;;;4.93;;
74152;SDS011;62505;46.070;14.492;2023-09-18T01:02:05;8.60;;;5.13;;
74152;SDS011;62505;46.070;14.492;2023-09-18T01:04:33;6.72;;;4.40;;
74152;SDS011;62505;46.070;14.492;2023-09-18T01:07:00;7.05;;;4.78;;
74152;SDS011;62505;46.070;14.492;2023-09-18T01:09:30;8.82;;;5.13;;
74152;SDS011;62505;46.070;14.492;2023-09-18T01:12:00;10.25;;;5.05;;
74152;SDS011;62505;46.070;14.492;2023-09-18T01:14:33;7.50;;;4.72;;
74152;SDS011;62505;46.070;14.492;2023-09-18T01:17:04;6.07;;;4.15;;
74152;SDS011;62505;46.070;14.492;2023-09-18T01:19:39;7.78;;;4.40;;
74152;SDS011;62505;46.070;14.492;2023-09-18T01:22:09;6.15;;;4.72;;
74152;SDS011;62505;46.070;14.492;2023-09-18T01:24:39;7.13;;;4.28;;
74152;SDS011;62505;46.070;14.492;2023-09-18T01:27:07;8.13;;;4.60;;
74152;SDS011;62505;46.070;14.492;2023-09-18T01:29:35;6.38;;;4.63;;
74152;SDS011;62505;46.070;14.492;2023-09-18T01:32:02;6.57;;;4.88;;
74152;SDS011;62505;46.070;14.492;2023-09-18T01:34:31;6.68;;;4.50;;
74152;SDS011;62505;46.070;14.492;2023-09-18T01:37:01;10.15;;;4.55;;
74152;SDS011;62505;46.070;14.492;2023-09-18T01:39:29;10.40;;;4.35;;
74152;SDS011;62505;46.070;14.492;2023-09-18T01:41:59;7.78;;;4.63;;
74152;SDS011;62505;46.070;14.492;2023-09-18T01:44:27;7.45;;;5.13;;
74152;SDS011;62505;46.070;14.492;2023-09-18T01:46:56;9.43;;;4.53;;
74152;SDS011;62505;46.070;14.492;2023-09-18T01:49:28;6.68;;;4.20;;
74152;SDS011;62505;46.070;14.492;2023-09-18T01:51:56;7.72;;;5.00;;
74152;SDS011;62505;46.070;14.492;2023-09-18T01:54:23;7.22;;;4.63;;
74152;SDS011;62505;46.070;14.492;2023-09-18T01:56:50;6.60;;;4.40;;
74152;SDS011;62505;46.070;14.492;2023-09-18T01:59:19;7.45;;;4.40;;
74152;SDS011;62505;46.070;14.492;2023-09-18T02:01:47;5.13;;;3.85;;
74152;SDS011;62505;46.070;14.492;2023-09-18T02:04:15;7.30;;;4.78;;
74152;SDS011;62505;46.070;14.492;2023-09-18T02:06:42;5.88;;;4.57;;
74152;SDS011;62505;46.070;14.492;2023-09-18T02:09:09;7.05;;;4.30;;
74152;SDS011;62505;46.070;14.492;2023-09-18T02:11:37;7.55;;;4.32;;
74152;SDS011;62505;46.070;14.492;2023-09-18T02:14:05;7.63;;;4.68;;
74152;SDS011;62505;46.070;14.492;2023-09-18T02:16:34;6.82;;;4.18;;
74152;SDS011;62505;46.070;14.492;2023-09-18T02:19:02;6.93;;;4.13;;
74152;SDS011;62505;46.070;14.492;2023-09-18T02:21:30;6.70;;;4.20;;
74152;SDS011;62505;46.070;14.492;2023-09-18T02:23:57;7.13;;;4.43;;
74152;SDS011;62505;46.070;14.492;2023-09-18T02:26:24;8.30;;;4.43;;
74152;SDS011;62505;46.070;14.492;2023-09-18T02:28:52;5.90;;;4.47;;
74152;SDS011;62505;46.070;14.492;2023-09-18T02:31:19;7.28;;;4.57;;
74152;SDS011;62505;46.070;14.492;2023-09-18T02:33:49;6.70;;;4.65;;
74152;SDS011;62505;46.070;14.492;2023-09-18T02:36:16;6.13;;;4.10;;
74152;SDS011;62505;46.070;14.492;2023-09-18T02:38:43;5.47;;;4.10;;
74152;SDS011;62505;46.070;14.492;2023-09-18T02:41:10;5.93;;;4.50;;
74152;SDS011;62505;46.070;14.492;2023-09-18T02:43:37;7.25;;;5.05;;
74152;SDS011;62505;46.070;14.492;2023-09-18T02:46:05;6.05;;;4.53;;
74152;SDS011;62505;46.070;14.492;2023-09-18T02:48:32;6.07;;;4.45;;
74152;SDS011;62505;46.070;14.492;2023-09-18T02:51:01;6.57;;;5.00;;
74152;SDS011;62505;46.070;14.492;2023-09-18T02:53:28;7.05;;;4.38;;
74152;SDS011;62505;46.070;14.492;2023-09-18T02:55:56;6.28;;;4.65;;
74152;SDS011;62505;46.070;14.492;2023-09-18T02:58:24;6.55;;;4.68;;
74152;SDS011;62505;46.070;14.492;2023-09-18T03:00:54;8.73;;;4.75;;
74152;SDS011;62505;46.070;14.492;2023-09-18T03:03:22;7.22;;;4.45;;
74152;SDS011;62505;46.070;14.492;2023-09-18T03:05:49;6.82;;;4.80;;
74152;SDS011;62505;46.070;14.492;2023-09-18T03:08:18;7.20;;;5.10;;
74152;SDS011;62505;46.070;14.492;2023-09-18T03:10:45;8.25;;;5.45;;
74152;SDS011;62505;46.070;14.492;2023-09-18T03:13:12;5.75;;;5.05;;
74152;SDS011;62505;46.070;14.492;2023-09-18T03:15:44;7.00;;;4.70;;
74152;SDS011;62505;46.070;14.492;2023-09-18T03:18:12;7.95;;;5.00;;
74152;SDS011;62505;46.070;14.492;2023-09-18T03:20:39;6.35;;;5.05;;
74152;SDS011;62505;46.070;14.492;2023-09-18T03:23:06;9.23;;;4.70;;
74152;SDS011;62505;46.070;14.492;2023-09-18T03:25:34;9.45;;;4.90;;
74152;SDS011;62505;46.070;14.492;2023-09-18T03:28:02;7.55;;;4.88;;
74152;SDS011;62505;46.070;14.492;2023-09-18T03:30:29;8.93;;;4.93;;
74152;SDS011;62505;46.070;14.492;2023-09-18T03:32:56;8.15;;;5.32;;
74152;SDS011;62505;46.070;14.492;2023-09-18T03:35:23;7.20;;;4.90;;
74152;SDS011;62505;46.070;14.492;2023-09-18T03:37:51;8.68;;;5.35;;
74152;SDS011;62505;46.070;14.492;2023-09-18T03:40:19;7.55;;;4.97;;
74152;SDS011;62505;46.070;14.492;2023-09-18T03:42:48;6.50;;;4.85;;
74152;SDS011;62505;46.070;14.492;2023-09-18T03:45:15;7.82;;;5.05;;
74152;SDS011;62505;46.070;14.492;2023-09-18T03:47:44;6.88;;;4.95;;
74152;SDS011;62505;46.070;14.492;2023-09-18T03:50:11;6.55;;;4.93;;
74152;SDS011;62505;46.070;14.492;2023-09-18T03:52:38;7.47;;;5.40;;
74152;SDS011;62505;46.070;14.492;2023-09-18T03:55:06;8.27;;;5.55;;
74152;SDS011;62505;46.070;14.492;2023-09-18T03:57:34;6.88;;;5.32;;
74152;SDS011;62505;46.070;14.492;2023-09-18T04:00:03;7.38;;;4.97;;
74152;SDS011;62505;46.070;14.492;2023-09-18T04:02:32;9.00;;;5.93;;
74152;SDS011;62505;46.070;14.492;2023-09-18T04:05:00;7.35;;;5.15;;
74152;SDS011;62505;46.070;14.492;2023-09-18T04:07:27;7.75;;;5.25;;
74152;SDS011;62505;46.070;14.492;2023-09-18T04:09:54;8.15;;;5.18;;
74152;SDS011;62505;46.070;14.492;2023-09-18T04:12:21;7.57;;;5.00;;
74152;SDS011;62505;46.070;14.492;2023-09-18T04:14:48;7.40;;;4.95;;
74152;SDS011;62505;46.070;14.492;2023-09-18T04:17:17;6.35;;;4.80;;
74152;SDS011;62505;46.070;14.492;2023-09-18T04:19:45;9.18;;;4.85;;
74152;SDS011;62505;46.070;14.492;2023-09-18T04:22:13;8.82;;;5.70;;
74152;SDS011;62505;46.070;14.492;2023-09-18T04:24:40;8.07;;;5.80;;
74152;SDS011;62505;46.070;14.492;2023-09-18T04:27:07;7.90;;;5.28;;
74152;SDS011;62505;46.070;14.492;2023-09-18T04:29:34;10.85;;;5.85;;
74152;SDS011;62505;46.070;14.492;2023-09-18T04:32:02;6.22;;;5.40;;
74152;SDS011;62505;46.070;14.492;2023-09-18T04:34:31;10.18;;;5.47;;
74152;SDS011;62505;46.070;14.492;2023-09-18T04:37:00;7.53;;;5.15;;
74152;SDS011;62505;46.070;14.492;2023-09-18T04:39:28;5.85;;;4.68;;
74152;SDS011;62505;46.070;14.492;2023-09-18T04:41:58;9.23;;;5.15;;
74152;SDS011;62505;46.070;14.492;2023-09-18T04:44:28;7.68;;;5.00;;
74152;SDS011;62505;46.070;14.492;2023-09-18T04:46:55;9.35;;;5.80;;
74152;SDS011;62505;46.070;14.492;2023-09-18T04:49:23;7.63;;;4.93;;
74152;SDS011;62505;46.070;14.492;2023-09-18T04:51:52;6.07;;;5.05;;
74152;SDS011;62505;46.070;14.492;2023-09-18T04:54:19;5.82;;;4.93;;
74152;SDS011;62505;46.070;14.492;2023-09-18T04:56:46;7.53;;;4.78;;
74152;SDS011;62505;46.070;14.492;2023-09-18T04:59:13;6.53;;;4.70;;
74152;SDS011;62505;46.070;14.492;2023-09-18T05:01:41;6.75;;;4.55;;
74152;SDS011;62505;46.070;14.492;2023-09-18T05:04:09;6.05;;;4.63;;
74152;SDS011;62505;46.070;14.492;2023-09-18T05:06:36;6.43;;;5.18;;
74152;SDS011;62505;46.070;14.492;2023-09-18T05:09:07;6.75;;;4.85;;
74152;SDS011;62505;46.070;14.492;2023-09-18T05:11:34;7.28;;;4.80;;
74152;SDS011;62505;46.070;14.492;2023-09-18T05:14:01;10.95;;;5.30;;
74152;SDS011;62505;46.070;14.492;2023-09-18T05:16:28;7.07;;;5.43;;
74152;SDS011;62505;46.070;14.492;2023-09-18T05:18:55;7.82;;;5.50;;
74152;SDS011;62505;46.070;14.492;2023-09-18T05:21:22;9.77;;;6.00;;
74152;SDS011;62505;46.070;14.492;2023-09-18T05:23:51;12.75;;;5.25;;
74152;SDS011;62505;46.070;14.492;2023-09-18T05:26:21;13.75;;;5.82;;
74152;SDS011;62505;46.070;14.492;2023-09-18T05:28:49;13.38;;;5.95;;
74152;SDS011;62505;46.070;14.492;2023-09-18T05:31:18;11.25;;;5.43;;
74152;SDS011;62505;46.070;14.492;2023-09-18T05:33:45;8.55;;;5.55;;
74152;SDS011;62505;46.070;14.492;2023-09-18T05:36:13;9.25;;;5.53;;
74152;SDS011;62505;46.070;14.492;2023-09-18T05:38:40;14.02;;;5.22;;
74152;SDS011;62505;46.070;14.492;2023-09-18T05:41:06;12.35;;;5.90;;
74152;SDS011;62505;46.070;14.492;2023-09-18T05:43:35;11.80;;;5.93;;
74152;SDS011;62505;46.070;14.492;2023-09-18T05:46:02;12.90;;;5.72;;
74152;SDS011;62505;46.070;14.492;2023-09-18T05:48:29;8.10;;;5.32;;
74152;SDS011;62505;46.070;14.492;2023-09-18T05:50:56;9.65;;;5.20;;
74152;SDS011;62505;46.070;14.492;2023-09-18T05:53:23;11.07;;;5.50;;
74152;SDS011;62505;46.070;14.492;2023-09-18T05:55:50;15.43;;;6.78;;
74152;SDS011;62505;46.070;14.492;2023-09-18T05:58:17;10.48;;;5.82;;
74152;SDS011;62505;46.070;14.492;2023-09-18T06:00:48;9.00;;;5.57;;
74152;SDS011;62505;46.070;14.492;2023-09-18T06:03:15;12.23;;;5.70;;
74152;SDS011;62505;46.070;14.492;2023-09-18T06:05:44;9.02;;;5.57;;
74152;SDS011;62505;46.070;14.492;2023-09-18T06:08:12;9.63;;;5.57;;
74152;SDS011;62505;46.070;14.492;2023-09-18T06:10:39;12.20;;;5.65;;
74152;SDS011;62505;46.070;14.492;2023-09-18T06:13:06;7.38;;;5.13;;
74152;SDS011;62505;46.070;14.492;2023-09-18T06:15:33;8.15;;;4.75;;
74152;SDS011;62505;46.070;14.492;2023-09-18T06:18:01;10.05;;;5.38;;
74152;SDS011;62505;46.070;14.492;2023-09-18T06:20:29;14.07;;;6.15;;
74152;SDS011;62505;46.070;14.492;2023-09-18T06:22:56;9.55;;;5.50;;
74152;SDS011;62505;46.070;14.492;2023-09-18T06:25:23;10.73;;;5.88;;
74152;SDS011;62505;46.070;14.492;2023-09-18T06:27:50;10.23;;;5.43;;
74152;SDS011;62505;46.070;14.492;2023-09-18T06:30:17;12.02;;;5.60;;
74152;SDS011;62505;46.070;14.492;2023-09-18T06:32:44;9.77;;;5.57;;
74152;SDS011;62505;46.070;14.492;2023-09-18T06:35:13;11.45;;;5.40;;
74152;SDS011;62505;46.070;14.492;2023-09-18T06:37:40;11.30;;;6.10;;
74152;SDS011;62505;46.070;14.492;2023-09-18T06:40:07;11.95;;;5.88;;
74152;SDS011;62505;46.070;14.492;2023-09-18T06:42:35;11.38;;;6.10;;
74152;SDS011;62505;46.070;14.492;2023-09-18T06:45:03;12.18;;;5.90;;
74152;SDS011;62505;46.070;14.492;2023-09-18T06:47:31;10.43;;;6.10;;
74152;SDS011;62505;46.070;14.492;2023-09-18T06:49:58;9.80;;;5.75;;
74152;SDS011;62505;46.070;14.492;2023-09-18T06:52:27;9.27;;;5.78;;
74152;SDS011;62505;46.070;14.492;2023-09-18T06:54:54;8.32;;;5.82;;
74152;SDS011;62505;46.070;14.492;2023-09-18T06:57:23;14.60;;;5.65;;
74152;SDS011;62505;46.070;14.492;2023-09-18T06:59:50;10.43;;;5.43;;
74152;SDS011;62505;46.070;14.492;2023-09-18T07:02:17;8.32;;;5.70;;
74152;SDS011;62505;46.070;14.492;2023-09-18T07:04:44;6.85;;;5.20;;
74152;SDS011;62505;46.070;14.492;2023-09-18T07:07:11;10.40;;;5.00;;
74152;SDS011;62505;46.070;14.492;2023-09-18T07:09:40;9.85;;;4.93;;
74152;SDS011;62505;46.070;14.492;2023-09-18T07:12:08;7.07;;;4.97;;
74152;SDS011;62505;46.070;14.492;2023-09-18T07:14:35;9.40;;;5.38;;
74152;SDS011;62505;46.070;14.492;2023-09-18T07:17:03;10.10;;;5.22;;
74152;SDS011;62505;46.070;14.492;2023-09-18T07:19:30;7.65;;;5.82;;
74152;SDS011;62505;46.070;14.492;2023-09-18T07:21:57;11.25;;;5.13;;
74152;SDS011;62505;46.070;14.492;2023-09-18T07:24:25;6.60;;;4.45;;
74152;SDS011;62505;46.070;14.492;2023-09-18T07:26:53;7.20;;;5.47;;
74152;SDS011;62505;46.070;14.492;2023-09-18T07:29:22;9.07;;;5.35;;
74152;SDS011;62505;46.070;14.492;2023-09-18T07:31:50;9.23;;;5.55;;
74152;SDS011;62505;46.070;14.492;2023-09-18T07:34:17;8.48;;;5.18;;
74152;SDS011;62505;46.070;14.492;2023-09-18T07:36:44;10.15;;;5.90;;
74152;SDS011;62505;46.070;14.492;2023-09-18T07:39:19;7.95;;;5.03;;
74152;SDS011;62505;46.070;14.492;2023-09-18T07:41:46;13.10;;;5.90;;
74152;SDS011;62505;46.070;14.492;2023-09-18T07:44:17;10.55;;;5.43;;
74152;SDS011;62505;46.070;14.492;2023-09-18T07:46:45;10.93;;;5.53;;
74152;SDS011;62505;46.070;14.492;2023-09-18T07:49:12;8.98;;;5.25;;
74152;SDS011;62505;46.070;14.492;2023-09-18T07:51:40;8.20;;;5.90;;
74152;SDS011;62505;46.070;14.492;2023-09-18T07:54:07;12.38;;;5.32;;
74152;SDS011;62505;46.070;14.492;2023-09-18T07:56:34;7.97;;;5.50;;
74152;SDS011;62505;46.070;14.492;2023-09-18T07:59:01;11.90;;;6.07;;
74152;SDS011;62505;46.070;14.492;2023-09-18T08:01:30;7.63;;;5.45;;
74152;SDS011;62505;46.070;14.492;2023-09-18T08:03:57;10.93;;;6.05;;
74152;SDS011;62505;46.070;14.492;2023-09-18T08:06:25;7.85;;;5.10;;
74152;SDS011;62505;46.070;14.492;2023-09-18T08:08:53;8.50;;;5.05;;
74152;SDS011;62505;46.070;14.492;2023-09-18T08:11:20;13.18;;;5.20;;
74152;SDS011;62505;46.070;14.492;2023-09-18T08:13:47;8.60;;;5.53;;
74152;SDS011;62505;46.070;14.492;2023-09-18T08:16:14;12.85;;;5.53;;
74152;SDS011;62505;46.070;14.492;2023-09-18T08:18:43;10.27;;;5.20;;
74152;SDS011;62505;46.070;14.492;2023-09-18T08:21:10;8.43;;;4.90;;
74152;SDS011;62505;46.070;14.492;2023-09-18T08:23:39;11.70;;;5.35;;
74152;SDS011;62505;46.070;14.492;2023-09-18T08:26:05;8.65;;;4.85;;
74152;SDS011;62505;46.070;14.492;2023-09-18T08:28:33;10.73;;;5.65;;
74152;SDS011;62505;46.070;14.492;2023-09-18T08:31:04;9.60;;;5.47;;
74152;SDS011;62505;46.070;14.492;2023-09-18T08:33:30;7.68;;;5.00;;
74152;SDS011;62505;46.070;14.492;2023-09-18T08:35:59;9.88;;;5.18;;
74152;SDS011;62505;46.070;14.492;2023-09-18T08:38:26;8.15;;;5.57;;
74152;SDS011;62505;46.070;14.492;2023-09-18T08:40:53;7.82;;;4.82;;
74152;SDS011;62505;46.070;14.492;2023-09-18T08:43:20;10.27;;;5.05;;
74152;SDS011;62505;46.070;14.492;2023-09-18T08:45:50;11.27;;;5.65;;
74152;SDS011;62505;46.070;14.492;2023-09-18T08:48:18;11.93;;;4.80;;
74152;SDS011;62505;46.070;14.492;2023-09-18T08:50:46;13.65;;;6.32;;
74152;SDS011;62505;46.070;14.492;2023-09-18T08:53:15;9.93;;;5.25;;
74152;SDS011;62505;46.070;14.492;2023-09-18T08:55:42;12.27;;;5.57;;
74152;SDS011;62505;46.070;14.492;2023-09-18T08:58:09;14.63;;;6.03;;
74152;SDS011;62505;46.070;14.492;2023-09-18T09:00:36;10.52;;;5.40;;
74152;SDS011;62505;46.070;14.492;2023-09-18T09:03:04;9.10;;;5.25;;
74152;SDS011;62505;46.070;14.492;2023-09-18T09:05:31;14.90;;;5.25;;
74152;SDS011;62505;46.070;14.492;2023-09-18T09:07:58;11.13;;;5.90;;
74152;SDS011;62505;46.070;14.492;2023-09-18T09:10:27;9.45;;;5.10;;
74152;SDS011;62505;46.070;14.492;2023-09-18T09:12:55;7.57;;;5.47;;
74152;SDS011;62505;46.070;14.492;2023-09-18T09:15:24;11.50;;;5.05;;
74152;SDS011;62505;46.070;14.492;2023-09-18T09:18:01;11.05;;;5.05;;
74152;SDS011;62505;46.070;14.492;2023-09-18T09:20:29;9.77;;;5.15;;
74152;SDS011;62505;46.070;14.492;2023-09-18T09:23:00;10.18;;;5.38;;
74152;SDS011;62505;46.070;14.492;2023-09-18T09:25:29;10.98;;;5.30;;
74152;SDS011;62505;46.070;14.492;2023-09-18T09:27:58;7.55;;;4.80;;
74152;SDS011;62505;46.070;14.492;2023-09-18T09:30:26;8.27;;;4.85;;
74152;SDS011;62505;46.070;14.492;2023-09-18T09:32:55;6.60;;;4.38;;
74152;SDS011;62505;46.070;14.492;2023-09-18T09:35:24;8.70;;;5.30;;
74152;SDS011;62505;46.070;14.492;2023-09-18T09:37:53;9.02;;;5.18;;
74152;SDS011;62505;46.070;14.492;2023-09-18T09:40:23;8.85;;;5.75;;
74152;SDS011;62505;46.070;14.492;2023-09-18T09:42:52;8.82;;;4.90;;
74152;SDS011;62505;46.070;14.492;2023-09-18T09:45:25;8.48;;;4.70;;
74152;SDS011;62505;46.070;14.492;2023-09-18T09:47:54;8.50;;;4.65;;
74152;SDS011;62505;46.070;14.492;2023-09-18T09:50:22;9.43;;;6.55;;
74152;SDS011;62505;46.070;14.492;2023-09-18T09:52:50;7.60;;;5.40;;
74152;SDS011;62505;46.070;14.492;2023-09-18T09:55:23;6.38;;;5.03;;
74152;SDS011;62505;46.070;14.492;2023-09-18T09:57:55;15.00;;;7.18;;
74152;SDS011;62505;46.070;14.492;2023-09-18T10:00:29;14.90;;;6.95;;
74152;SDS011;62505;46.070;14.492;2023-09-18T10:03:02;20.55;;;7.82;;
74152;SDS011;62505;46.070;14.492;2023-09-18T10:05:31;22.08;;;7.22;;
74152;SDS011;62505;46.070;14.492;2023-09-18T10:08:02;17.30;;;6.43;;
74152;SDS011;62505;46.070;14.492;2023-09-18T10:10:33;15.45;;;7.75;;
74152;SDS011;62505;46.070;14.492;2023-09-18T10:13:07;17.63;;;7.20;;
74152;SDS011;62505;46.070;14.492;2023-09-18T10:15:37;16.02;;;6.78;;
74152;SDS011;62505;46.070;14.492;2023-09-18T10:18:10;16.70;;;6.75;;
74152;SDS011;62505;46.070;14.492;2023-09-18T10:20:44;16.65;;;6.25;;
74152;SDS011;62505;46.070;14.492;2023-09-18T10:23:18;17.48;;;6.53;;
74152;SDS011;62505;46.070;14.492;2023-09-18T10:25:53;15.20;;;6.25;;
74152;SDS011;62505;46.070;14.492;2023-09-18T10:28:29;18.75;;;6.95;;
74152;SDS011;62505;46.070;14.492;2023-09-18T10:30:58;9.65;;;6.32;;
74152;SDS011;62505;46.070;14.492;2023-09-18T10:33:28;13.73;;;6.03;;
74152;SDS011;62505;46.070;14.492;2023-09-18T10:35:56;14.50;;;6.43;;
74152;SDS011;62505;46.070;14.492;2023-09-18T10:38:26;10.52;;;6.95;;
74152;SDS011;62505;46.070;14.492;2023-09-18T10:40:56;10.25;;;5.78;;
74152;SDS011;62505;46.070;14.492;2023-09-18T10:43:24;11.75;;;6.13;;
74152;SDS011;62505;46.070;14.492;2023-09-18T10:45:52;14.10;;;6.63;;
74152;SDS011;62505;46.070;14.492;2023-09-18T10:48:20;13.25;;;6.10;;
74152;SDS011;62505;46.070;14.492;2023-09-18T10:50:48;10.02;;;5.90;;
74152;SDS011;62505;46.070;14.492;2023-09-18T10:53:17;10.82;;;6.07;;
74152;SDS011;62505;46.070;14.492;2023-09-18T10:55:45;12.20;;;6.15;;
74152;SDS011;62505;46.070;14.492;2023-09-18T10:58:12;11.45;;;5.95;;
74152;SDS011;62505;46.070;14.492;2023-09-18T11:00:50;8.13;;;4.78;;
74152;SDS011;62505;46.070;14.492;2023-09-18T11:03:21;9.07;;;5.07;;
74152;SDS011;62505;46.070;14.492;2023-09-18T11:06:02;10.48;;;6.05;;
74152;SDS011;62505;46.070;14.492;2023-09-18T11:08:32;8.00;;;5.80;;
74152;SDS011;62505;46.070;14.492;2023-09-18T11:11:03;8.15;;;5.88;;
74152;SDS011;62505;46.070;14.492;2023-09-18T11:13:35;9.35;;;5.82;;
74152;SDS011;62505;46.070;14.492;2023-09-18T11:19:10;8.73;;;5.70;;
74152;SDS011;62505;46.070;14.492;2023-09-18T11:21:42;8.35;;;5.10;;
74152;SDS011;62505;46.070;14.492;2023-09-18T11:24:15;9.15;;;5.35;;
74152;SDS011;62505;46.070;14.492;2023-09-18T11:26:44;8.50;;;5.65;;
74152;SDS011;62505;46.070;14.492;2023-09-18T11:29:13;11.40;;;6.05;;
74152;SDS011;62505;46.070;14.492;2023-09-18T11:31:48;11.32;;;6.22;;
74152;SDS011;62505;46.070;14.492;2023-09-18T11:34:19;9.50;;;6.18;;
74152;SDS011;62505;46.070;14.492;2023-09-18T11:36:47;10.52;;;6.45;;
74152;SDS011;62505;46.070;14.492;2023-09-18T11:39:32;11.10;;;5.85;;
74152;SDS011;62505;46.070;14.492;2023-09-18T11:42:11;11.57;;;5.55;;
74152;SDS011;62505;46.070;14.492;2023-09-18T11:44:40;8.38;;;5.90;;
74152;SDS011;62505;46.070;14.492;2023-09-18T11:47:13;10.68;;;5.78;;
74152;SDS011;62505;46.070;14.492;2023-09-18T11:49:48;10.52;;;5.90;;
74152;SDS011;62505;46.070;14.492;2023-09-18T11:52:19;8.45;;;5.53;;
74152;SDS011;62505;46.070;14.492;2023-09-18T11:54:47;10.88;;;5.50;;
74152;SDS011;62505;46.070;14.492;2023-09-18T11:57:15;7.90;;;5.88;;
74152;SDS011;62505;46.070;14.492;2023-09-18T11:59:43;13.55;;;5.43;;
74152;SDS011;62505;46.070;14.492;2023-09-18T12:02:12;10.15;;;5.50;;
74152;SDS011;62505;46.070;14.492;2023-09-18T12:04:45;8.90;;;5.47;;
74152;SDS011;62505;46.070;14.492;2023-09-18T12:07:13;8.65;;;5.55;;
74152;SDS011;62505;46.070;14.492;2023-09-18T12:09:40;8.65;;;5.80;;
74152;SDS011;62505;46.070;14.492;2023-09-18T12:12:07;14.73;;;5.93;;
74152;SDS011;62505;46.070;14.492;2023-09-18T12:14:35;9.13;;;5.55;;
74152;SDS011;62505;46.070;14.492;2023-09-18T12:17:04;7.32;;;5.70;;
74152;SDS011;62505;46.070;14.492;2023-09-18T12:19:34;8.60;;;5.38;;
74152;SDS011;62505;46.070;14.492;2023-09-18T12:22:01;10.85;;;5.53;;
74152;SDS011;62505;46.070;14.492;2023-09-18T12:24:29;6.95;;;5.25;;
74152;SDS011;62505;46.070;14.492;2023-09-18T12:26:56;9.52;;;5.55;;
74152;SDS011;62505;46.070;14.492;2023-09-18T12:29:24;8.52;;;5.35;;
74152;SDS011;62505;46.070;14.492;2023-09-18T12:31:51;6.10;;;5.05;;
74152;SDS011;62505;46.070;14.492;2023-09-18T12:34:18;10.00;;;5.72;;
74152;SDS011;62505;46.070;14.492;2023-09-18T12:36:48;8.50;;;5.47;;
74152;SDS011;62505;46.070;14.492;2023-09-18T12:39:16;7.10;;;5.90;;
74152;SDS011;62505;46.070;14.492;2023-09-18T12:41:45;10.75;;;6.35;;
74152;SDS011;62505;46.070;14.492;2023-09-18T12:44:13;9.15;;;5.70;;
74152;SDS011;62505;46.070;14.492;2023-09-18T12:46:41;8.50;;;6.25;;
74152;SDS011;62505;46.070;14.492;2023-09-18T12:49:16;10.82;;;5.90;;
74152;SDS011;62505;46.070;14.492;2023-09-18T12:51:43;9.35;;;6.20;;
74152;SDS011;62505;46.070;14.492;2023-09-18T12:54:13;8.63;;;6.00;;
74152;SDS011;62505;46.070;14.492;2023-09-18T12:56:41;10.77;;;6.18;;
74152;SDS011;62505;46.070;14.492;2023-09-18T12:59:08;9.05;;;5.80;;
74152;SDS011;62505;46.070;14.492;2023-09-18T13:01:36;9.25;;;5.80;;
74152;SDS011;62505;46.070;14.492;2023-09-18T13:04:04;10.35;;;6.03;;
74152;SDS011;62505;46.070;14.492;2023-09-18T13:06:31;12.98;;;5.80;;
74152;SDS011;62505;46.070;14.492;2023-09-18T13:11:52;9.32;;;5.60;;
74152;SDS011;62505;46.070;14.492;2023-09-18T13:14:20;9.43;;;4.70;;
74152;SDS011;62505;46.070;14.492;2023-09-18T13:16:47;7.65;;;5.25;;
74152;SDS011;62505;46.070;14.492;2023-09-18T13:19:14;11.13;;;5.53;;
74152;SDS011;62505;46.070;14.492;2023-09-18T13:21:46;13.45;;;5.45;;
74152;SDS011;62505;46.070;14.492;2023-09-18T13:24:25;6.03;;;4.53;;
74152;SDS011;62505;46.070;14.492;2023-09-18T13:26:53;8.82;;;5.55;;
74152;SDS011;62505;46.070;14.492;2023-09-18T13:29:21;9.75;;;5.38;;
74152;SDS011;62505;46.070;14.492;2023-09-18T13:31:49;8.43;;;5.57;;
74152;SDS011;62505;46.070;14.492;2023-09-18T13:34:17;10.55;;;5.25;;
74152;SDS011;62505;46.070;14.492;2023-09-18T13:36:44;7.82;;;5.22;;
74152;SDS011;62505;46.070;14.492;2023-09-18T13:39:11;7.40;;;5.55;;
74152;SDS011;62505;46.070;14.492;2023-09-18T13:41:40;11.30;;;5.15;;
74152;SDS011;62505;46.070;14.492;2023-09-18T13:44:07;9.57;;;5.93;;
74152;SDS011;62505;46.070;14.492;2023-09-18T13:46:35;7.70;;;4.78;;
74152;SDS011;62505;46.070;14.492;2023-09-18T13:49:02;7.18;;;5.00;;
74152;SDS011;62505;46.070;14.492;2023-09-18T13:51:30;9.82;;;5.35;;
74152;SDS011;62505;46.070;14.492;2023-09-18T13:53:57;6.65;;;4.90;;
74152;SDS011;62505;46.070;14.492;2023-09-18T13:56:24;12.30;;;5.60;;
74152;SDS011;62505;46.070;14.492;2023-09-18T13:58:54;8.15;;;5.25;;
74152;SDS011;62505;46.070;14.492;2023-09-18T14:01:22;7.97;;;5.45;;
74152;SDS011;62505;46.070;14.492;2023-09-18T14:03:50;10.98;;;5.20;;
74152;SDS011;62505;46.070;14.492;2023-09-18T14:06:18;7.78;;;5.38;;
74152;SDS011;62505;46.070;14.492;2023-09-18T14:08:45;8.43;;;5.85;;
74152;SDS011;62505;46.070;14.492;2023-09-18T14:11:12;7.65;;;5.07;;
74152;SDS011;62505;46.070;14.492;2023-09-18T14:13:39;9.05;;;5.90;;
74152;SDS011;62505;46.070;14.492;2023-09-18T14:16:08;9.85;;;5.53;;
74152;SDS011;62505;46.070;14.492;2023-09-18T14:18:36;8.85;;;5.25;;
74152;SDS011;62505;46.070;14.492;2023-09-18T14:21:03;13.75;;;5.45;;
74152;SDS011;62505;46.070;14.492;2023-09-18T14:23:30;7.55;;;5.47;;
74152;SDS011;62505;46.070;14.492;2023-09-18T14:25:58;8.10;;;5.82;;
74152;SDS011;62505;46.070;14.492;2023-09-18T14:28:26;6.97;;;5.07;;
74152;SDS011;62505;46.070;14.492;2023-09-18T14:30:53;9.50;;;5.07;;
74152;SDS011;62505;46.070;14.492;2023-09-18T14:33:21;10.48;;;5.60;;
74152;SDS011;62505;46.070;14.492;2023-09-18T14:35:48;7.97;;;5.63;;
74152;SDS011;62505;46.070;14.492;2023-09-18T14:38:16;11.70;;;5.53;;
74152;SDS011;62505;46.070;14.492;2023-09-18T14:40:43;7.13;;;5.38;;
74152;SDS011;62505;46.070;14.492;2023-09-18T14:43:10;7.13;;;4.97;;